You are listening to:
EHGG Approach - Groningen, Netherlands

EHGG 261325Z AUTO 21016KT 170V250 9999 FEW006 SCT007 BKN009 12/11 Q0995 REDZ BECMG 6000

If stream doesn't start automatically press the play button
If stream stops then reload player then press play